Tropical Cyclones
[Index]
Main Index Home Page Stock Weather Photos Extreme Storms Discussion Storm News and Storm Chasing Reports Tropical Cyclones / Hurricanes / Typhoons Weather Data and Links Wild Fires / Bushfires Weather Observation Techniques Weather Picture Catalogue Tornado Pictures and Reports Stock Video Footage and DVDs for sale
Season 2009-2010 Tropical Cyclone MAGDA Track Map
Season 2009-2010 Summaries: [BoM-AU] [JTWC-AU] [JTWC-SIO] [JTWC-SPAC] [JTWC-SH]
<<- Previous TC | BoM 2009-2010 Season | Next TC ->>

click for intensity scale information  Lat/long Grid: Show Hide

 Date Labels: Show Hide

Bureau of Meteorology Tropical Cyclone Data

Name: MAGDA
Number: 932 / 200910_06

18 Jan 2010 12:00 UTC to 24 Jan 2010 06:00 UTC

    date/time    lat    long    hPa   cat  kts
2010-01-18 12   10.9   123.0   1004         20          
2010-01-18 18   11.2   122.9   1002         25          
2010-01-19 00   11.3   122.9   1000         30          
2010-01-19 06   11.5   122.5   1000         30          
2010-01-19 12   11.8   122.5   1000         30          
2010-01-19 18   11.9   122.4   1000         30          
2010-01-20 00   12.1   122.3    996         35          
2010-01-20 06   12.4   122.2    995    1    40          
2010-01-20 12   12.7   122.3    992    1    45          
2010-01-20 18   13.1   122.5    985    2    55          
2010-01-21 00   13.6   123.2    978    2    65          
2010-01-21 03   14.0   123.3    980    2    60          
2010-01-21 06   14.3   123.5    982    2    60          
2010-01-21 12   14.6   124.1    988    1    50          
2010-01-21 18   15.2   124.4    980    2    65          
2010-01-21 21   15.6   124.5    975    2    70          
2010-01-22 00   15.9   124.5    980    2    65          
2010-01-22 03   16.3   124.4    982    2    60          
2010-01-22 06   16.7   124.4    986    1    50          
2010-01-22 09   17.2   124.4    992    1    40          
2010-01-22 12   17.4   124.4    996         30          
2010-01-22 18   17.9   124.2    998         25          
2010-01-23 00   18.2   124.0   1002         25          
2010-01-23 06   18.4   123.8   1000         20          
2010-01-23 12   19.0   123.6   1002         20          
2010-01-23 18   19.6   123.3   1002         20          
2010-01-24 00   19.9   122.9   1004         15          
2010-01-24 06   20.1   122.4   1002         15          
Winds are 10-min average.

Tropical cyclone tracks developed by Michael Bath using data from the Bureau of Meteorology and Google Maps.


[Australian Severe Weather index] [Copyright Notice] [Email Contacts] [Search This Site] [Privacy Policy]
Document: tropical_cyclone_magda.htm Updated: 29 June 2017